createdAt,value
2018-05-15T00:01:52.040Z,5.63
2018-05-15T00:04:18.294Z,6.17
2018-05-15T00:06:44.575Z,6.40
2018-05-15T00:09:11.667Z,5.67
2018-05-15T00:11:37.922Z,5.97
2018-05-15T00:14:04.192Z,5.70
2018-05-15T00:16:30.443Z,7.00
2018-05-15T00:18:56.686Z,6.00
2018-05-15T00:21:22.960Z,6.97
2018-05-15T00:23:49.980Z,4.77
2018-05-15T00:26:16.237Z,5.87
2018-05-15T00:28:43.229Z,5.57
2018-05-15T00:31:09.468Z,5.70
2018-05-15T00:33:35.734Z,6.00
2018-05-15T00:36:01.983Z,5.60
2018-05-15T00:38:29.006Z,5.80
2018-05-15T00:40:55.276Z,6.10
2018-05-15T00:43:21.547Z,6.83
2018-05-15T00:45:47.831Z,6.60
2018-05-15T00:48:14.134Z,6.80
2018-05-15T00:50:41.170Z,6.03
2018-05-15T00:53:08.155Z,6.63
2018-05-15T00:55:44.135Z,6.87
2018-05-15T00:58:10.452Z,7.00
2018-05-15T01:00:36.676Z,7.27
2018-05-15T01:03:03.015Z,7.60
2018-05-15T01:05:29.323Z,7.10
2018-05-15T01:07:56.309Z,5.90
2018-05-15T01:10:22.613Z,5.40
2018-05-15T01:12:48.871Z,6.70
2018-05-15T01:15:15.135Z,7.40
2018-05-15T01:17:41.417Z,7.17
2018-05-15T01:20:07.703Z,7.07
2018-05-15T01:22:34.715Z,6.67
2018-05-15T01:25:01.014Z,6.20
2018-05-15T01:27:27.273Z,6.43
2018-05-15T01:29:54.055Z,6.50
2018-05-15T01:32:21.044Z,6.07
2018-05-15T01:34:47.341Z,6.20
2018-05-15T01:37:15.152Z,7.27
2018-05-15T01:39:41.477Z,7.07
2018-05-15T01:42:07.737Z,6.60
2018-05-15T01:44:34.021Z,7.43
2018-05-15T01:47:00.252Z,7.47
2018-05-15T01:49:26.560Z,6.87
2018-05-15T01:51:53.634Z,6.23
2018-05-15T01:54:19.930Z,7.37
2018-05-15T01:56:46.932Z,7.00
2018-05-15T01:59:13.199Z,7.33
2018-05-15T02:01:39.476Z,7.60
2018-05-15T02:04:05.710Z,6.83
2018-05-15T02:06:31.978Z,7.23
2018-05-15T02:08:59.309Z,7.33
2018-05-15T02:11:25.558Z,7.63
2018-05-15T02:13:51.839Z,8.00
2018-05-15T02:16:18.103Z,7.80
2018-05-15T02:18:44.404Z,7.40
2018-05-15T02:21:10.654Z,6.87
2018-05-15T02:23:36.886Z,8.10
2018-05-15T02:26:03.182Z,7.97
2018-05-15T02:28:29.465Z,7.97
2018-05-15T02:30:55.829Z,8.57
2018-05-15T02:33:22.842Z,8.43
2018-05-15T02:35:49.121Z,8.50
2018-05-15T02:38:15.393Z,8.20
2018-05-15T02:40:41.715Z,8.00
2018-05-15T02:43:07.980Z,10.60
2018-05-15T02:45:34.272Z,7.90
2018-05-15T02:48:00.544Z,7.40
2018-05-15T02:50:27.586Z,7.90
2018-05-15T02:52:53.809Z,8.10
2018-05-15T02:55:20.815Z,7.80
2018-05-15T02:57:47.079Z,7.83
2018-05-15T03:00:13.394Z,7.93
2018-05-15T03:02:39.655Z,8.40
2018-05-15T03:05:05.924Z,8.43
2018-05-15T03:07:32.181Z,7.90
2018-05-15T03:09:58.461Z,8.63
2018-05-15T03:12:25.472Z,8.57
2018-05-15T03:14:51.769Z,8.10
2018-05-15T03:17:18.052Z,8.03
2018-05-15T03:19:45.091Z,8.10
2018-05-15T03:22:11.352Z,8.30
2018-05-15T03:24:38.394Z,9.13
2018-05-15T03:27:05.402Z,9.53
2018-05-15T03:29:31.635Z,9.10
2018-05-15T03:31:57.890Z,8.80
2018-05-15T03:34:24.914Z,9.93
2018-05-15T03:36:51.173Z,10.20
2018-05-15T03:39:18.193Z,9.27
2018-05-15T03:41:44.548Z,9.80
2018-05-15T03:44:11.563Z,9.50
2018-05-15T03:46:37.815Z,9.57
2018-05-15T03:49:04.105Z,9.23
2018-05-15T03:51:30.382Z,9.30
2018-05-15T03:53:57.360Z,9.03
2018-05-15T03:56:23.625Z,9.30
2018-05-15T03:58:49.900Z,10.23
2018-05-15T04:01:35.603Z,9.90
2018-05-15T04:04:20.480Z,9.50
2018-05-15T04:07:05.383Z,10.50
2018-05-15T04:09:31.683Z,12.00
2018-05-15T04:11:59.205Z,9.53
2018-05-15T04:14:26.203Z,9.30
2018-05-15T04:16:52.466Z,9.53
2018-05-15T04:19:19.456Z,11.07
2018-05-15T04:21:45.736Z,11.33
2018-05-15T04:24:12.002Z,10.10
2018-05-15T04:26:38.257Z,10.40
2018-05-15T04:29:04.529Z,11.83
2018-05-15T04:31:31.525Z,11.17
2018-05-15T04:33:57.795Z,10.47
2018-05-15T04:36:24.112Z,11.20
2018-05-15T04:38:50.386Z,11.70
2018-05-15T04:41:17.408Z,10.20
2018-05-15T04:43:43.800Z,10.63
2018-05-15T04:46:10.026Z,11.57
2018-05-15T04:48:36.315Z,11.90
2018-05-15T04:51:03.417Z,10.27
2018-05-15T04:53:29.646Z,11.73
2018-05-15T04:55:55.965Z,12.37
2018-05-15T04:58:22.247Z,12.77
2018-05-15T05:00:49.279Z,11.90
2018-05-15T05:03:15.550Z,10.33
2018-05-15T05:05:42.606Z,10.43
2018-05-15T05:08:08.895Z,11.70
2018-05-15T05:10:35.229Z,10.10
2018-05-15T05:13:02.211Z,10.40
2018-05-15T05:15:28.475Z,12.30
2018-05-15T05:17:54.754Z,11.53
2018-05-15T05:20:21.756Z,11.47
2018-05-15T05:22:48.029Z,12.10
2018-05-15T05:25:15.014Z,11.90
2018-05-15T05:27:41.292Z,11.60
2018-05-15T05:30:08.248Z,11.40
2018-05-15T05:32:35.257Z,11.27
2018-05-15T05:35:01.560Z,11.10
2018-05-15T05:37:27.923Z,11.40
2018-05-15T05:39:54.182Z,11.47
2018-05-15T05:42:20.447Z,10.77
2018-05-15T05:44:46.722Z,10.60
2018-05-15T05:47:13.040Z,11.03
2018-05-15T05:49:39.293Z,12.20
2018-05-15T05:52:05.627Z,11.47
2018-05-15T05:54:31.880Z,11.83
2018-05-15T05:56:58.910Z,11.60
2018-05-15T05:59:25.194Z,11.47
2018-05-15T06:01:51.490Z,11.80
2018-05-15T06:04:18.487Z,11.57
2018-05-15T06:06:44.795Z,10.60
2018-05-15T06:09:11.053Z,11.50
2018-05-15T06:11:37.341Z,11.80
2018-05-15T06:14:03.619Z,12.30
2018-05-15T06:16:29.916Z,12.83
2018-05-15T06:18:56.182Z,12.53
2018-05-15T06:21:22.475Z,12.40
2018-05-15T06:23:48.735Z,12.27
2018-05-15T06:26:15.013Z,11.80
2018-05-15T06:28:41.274Z,11.40
2018-05-15T06:31:07.579Z,11.63
2018-05-15T06:33:33.851Z,11.80
2018-05-15T06:36:00.131Z,11.63
2018-05-15T06:38:26.469Z,11.10
2018-05-15T06:40:53.478Z,11.70
2018-05-15T06:43:21.241Z,11.10
2018-05-15T06:45:48.956Z,11.30
2018-05-15T06:48:15.250Z,10.83
2018-05-15T06:50:42.248Z,10.17
2018-05-15T06:53:08.487Z,11.17
2018-05-15T06:55:34.751Z,10.53
2018-05-15T06:58:01.019Z,11.00
2018-05-15T07:00:27.266Z,10.40
2018-05-15T07:02:53.568Z,9.77
2018-05-15T07:05:19.856Z,12.00
2018-05-15T07:07:46.202Z,10.60
2018-05-15T07:10:12.675Z,10.53
2018-05-15T07:12:38.955Z,9.80
2018-05-15T07:15:05.214Z,11.50
2018-05-15T07:17:32.258Z,10.33
2018-05-15T07:19:59.268Z,11.50
2018-05-15T07:22:25.620Z,10.00
2018-05-15T07:24:51.929Z,9.37
2018-05-15T07:27:18.309Z,8.80
2018-05-15T07:29:44.521Z,9.00
2018-05-15T07:32:10.936Z,9.50
2018-05-15T07:34:37.243Z,8.10
2018-05-15T07:37:03.675Z,8.67
2018-05-15T07:39:30.049Z,8.83
2018-05-15T07:41:57.074Z,9.40
2018-05-15T07:44:23.340Z,9.17
2018-05-15T07:46:50.343Z,9.03
2018-05-15T07:49:16.608Z,9.40
2018-05-15T07:51:43.609Z,8.60
2018-05-15T07:54:09.868Z,8.20
2018-05-15T07:56:36.880Z,8.93
2018-05-15T07:59:03.170Z,9.07
2018-05-15T08:01:30.155Z,8.23
2018-05-15T08:03:56.458Z,10.97
2018-05-15T08:06:22.748Z,9.13
2018-05-15T08:08:50.559Z,8.93
2018-05-15T08:11:16.833Z,8.33
2018-05-15T08:13:43.097Z,8.97
2018-05-15T08:16:10.127Z,10.23
2018-05-15T08:18:37.881Z,11.20
2018-05-15T08:21:04.151Z,9.93
2018-05-15T08:23:31.156Z,10.27
2018-05-15T08:25:57.431Z,9.70
2018-05-15T08:28:23.734Z,9.60
2018-05-15T08:30:50.108Z,10.77
2018-05-15T08:33:16.333Z,8.50
2018-05-15T08:35:42.602Z,9.53
2018-05-15T08:38:08.866Z,10.03
2018-05-15T08:40:35.908Z,9.37
2018-05-15T08:43:03.004Z,10.03
2018-05-15T08:45:29.466Z,9.80
2018-05-15T08:47:55.586Z,8.30
2018-05-15T08:50:21.869Z,8.73
2018-05-15T08:52:48.160Z,8.87
2018-05-15T08:55:15.922Z,10.00
2018-05-15T08:57:42.235Z,7.33
2018-05-15T09:00:08.540Z,6.80
2018-05-15T09:02:34.902Z,7.50
2018-05-15T09:05:01.189Z,6.13
2018-05-15T09:07:28.271Z,6.23
2018-05-15T09:09:54.604Z,3.77
2018-05-15T09:12:20.884Z,3.60
2018-05-15T09:14:48.063Z,4.60
2018-05-15T09:17:14.382Z,4.80
2018-05-15T09:19:40.674Z,4.23
2018-05-15T09:22:07.113Z,3.80
2018-05-15T09:24:33.407Z,4.37
2018-05-15T09:26:59.677Z,4.57
2018-05-15T09:29:26.105Z,4.33
2018-05-15T09:31:52.319Z,3.87
2018-05-15T09:34:18.646Z,3.33
2018-05-15T09:36:44.970Z,5.03
2018-05-15T09:39:11.259Z,5.23
2018-05-15T09:41:37.553Z,4.07
2018-05-15T09:44:04.102Z,4.03
2018-05-15T09:46:30.366Z,4.13
2018-05-15T09:48:56.679Z,3.97
2018-05-15T09:51:23.098Z,3.90
2018-05-15T09:53:50.504Z,5.27
2018-05-15T09:56:16.928Z,4.10
2018-05-15T09:58:43.249Z,4.17
2018-05-15T10:01:09.500Z,3.57
2018-05-15T10:03:35.799Z,3.90
2018-05-15T10:06:02.092Z,4.03
2018-05-15T10:08:28.365Z,3.80
2018-05-15T10:10:54.653Z,3.90
2018-05-15T10:13:27.905Z,3.40
2018-05-15T10:15:54.215Z,3.67
2018-05-15T10:18:20.621Z,3.97
2018-05-15T10:20:46.942Z,3.77
2018-05-15T10:23:13.284Z,3.67
2018-05-15T10:25:39.766Z,4.83
2018-05-15T10:28:06.165Z,4.00
2018-05-15T10:30:33.233Z,4.50
2018-05-15T10:32:59.654Z,5.30
2018-05-15T10:35:25.997Z,5.77
2018-05-15T10:37:52.276Z,8.13
2018-05-15T10:40:18.611Z,6.37
2018-05-15T10:42:44.935Z,6.60
2018-05-15T10:45:11.305Z,6.03
2018-05-15T10:47:38.421Z,7.37
2018-05-15T10:50:04.767Z,6.57
2018-05-15T10:52:31.073Z,6.97
2018-05-15T10:54:57.375Z,8.37
2018-05-15T10:57:23.751Z,4.90
2018-05-15T10:59:50.202Z,5.20
2018-05-15T11:02:16.554Z,6.17
2018-05-15T11:04:43.734Z,6.60
2018-05-15T11:07:10.053Z,8.13
2018-05-15T11:09:36.395Z,9.20
2018-05-15T11:12:02.985Z,9.00
2018-05-15T11:14:29.995Z,8.50
2018-05-15T11:16:56.260Z,8.50
2018-05-15T11:19:42.337Z,8.53
2018-05-15T11:22:27.399Z,8.67
2018-05-15T11:24:53.665Z,8.20
2018-05-15T11:27:20.774Z,8.47
2018-05-15T11:29:47.089Z,7.60
2018-05-15T11:32:13.380Z,8.57
2018-05-15T11:34:40.551Z,8.77
2018-05-15T11:37:06.836Z,7.43
2018-05-15T11:39:33.249Z,7.20
2018-05-15T11:41:59.636Z,6.60
2018-05-15T11:44:25.913Z,7.03
2018-05-15T11:46:52.390Z,5.60
2018-05-15T11:49:20.028Z,6.30
2018-05-15T11:51:47.085Z,6.80
2018-05-15T11:54:12.288Z,7.00
2018-05-15T11:56:38.614Z,6.90
2018-05-15T11:59:04.920Z,5.40
2018-05-15T12:01:31.217Z,6.53
2018-05-15T12:03:57.572Z,5.67
2018-05-15T12:06:23.851Z,5.70
2018-05-15T12:08:50.875Z,5.00
2018-05-15T12:11:17.203Z,4.17
2018-05-15T12:13:43.474Z,4.50
2018-05-15T12:16:10.579Z,4.40
2018-05-15T12:18:36.821Z,4.80
2018-05-15T12:21:03.146Z,5.00
2018-05-15T12:23:29.370Z,5.40
2018-05-15T12:25:55.694Z,5.27
2018-05-15T12:28:21.944Z,4.33
2018-05-15T12:30:48.979Z,4.73
2018-05-15T12:33:15.290Z,4.70
2018-05-15T12:35:41.594Z,6.20
2018-05-15T12:38:07.894Z,5.50
2018-05-15T12:40:34.960Z,5.13
2018-05-15T12:43:01.962Z,4.63
2018-05-15T12:45:28.240Z,4.83
2018-05-15T12:47:55.316Z,4.93
2018-05-15T12:50:22.291Z,6.50
2018-05-15T12:52:48.566Z,6.83
2018-05-15T12:55:15.602Z,5.83
2018-05-15T12:57:42.598Z,5.63
2018-05-15T13:00:08.846Z,4.80
2018-05-15T13:02:35.170Z,4.47
2018-05-15T13:05:01.463Z,5.30
2018-05-15T13:07:27.777Z,6.17
2018-05-15T13:09:54.777Z,5.80
2018-05-15T13:12:21.296Z,4.20
2018-05-15T13:14:47.580Z,6.47
2018-05-15T13:17:14.598Z,5.90
2018-05-15T13:19:40.846Z,5.97
2018-05-15T13:22:07.130Z,4.97
2018-05-15T13:24:33.500Z,5.30
2018-05-15T13:27:01.175Z,6.00
2018-05-15T13:29:28.195Z,6.00
2018-05-15T13:31:54.498Z,3.97
2018-05-15T13:34:20.780Z,5.90
2018-05-15T13:36:47.795Z,5.43
2018-05-15T13:39:14.095Z,5.33
2018-05-15T13:41:40.351Z,4.20
2018-05-15T13:44:06.643Z,4.77
2018-05-15T13:46:32.911Z,4.90
2018-05-15T13:48:59.202Z,4.83
2018-05-15T13:51:26.190Z,4.43
2018-05-15T13:53:52.433Z,4.30
2018-05-15T13:56:18.739Z,5.50
2018-05-15T13:58:45.027Z,5.37
2018-05-15T14:01:12.047Z,4.73
2018-05-15T14:03:38.287Z,4.80
2018-05-15T14:06:04.577Z,5.33
2018-05-15T14:08:30.831Z,5.17
2018-05-15T14:10:57.127Z,5.00
2018-05-15T14:13:23.425Z,4.97
2018-05-15T14:15:50.461Z,5.20
2018-05-15T14:18:17.471Z,6.87
2018-05-15T14:20:43.733Z,6.90
2018-05-15T14:23:10.019Z,6.03
2018-05-15T14:25:36.326Z,6.67
2018-05-15T14:28:02.607Z,6.70
2018-05-15T14:30:28.870Z,6.17
2018-05-15T14:32:55.910Z,7.07
2018-05-15T14:35:22.948Z,5.67
2018-05-15T14:37:49.243Z,5.93
2018-05-15T14:40:15.508Z,5.67
2018-05-15T14:43:00.463Z,5.83
2018-05-15T14:45:26.743Z,5.03
2018-05-15T14:47:53.063Z,6.13
2018-05-15T14:50:20.123Z,5.50
2018-05-15T14:52:46.430Z,4.97
2018-05-15T14:55:13.454Z,5.60
2018-05-15T14:57:39.735Z,5.40
2018-05-15T15:00:05.973Z,6.80
2018-05-15T15:02:32.283Z,6.27
2018-05-15T15:04:58.609Z,7.20
2018-05-15T15:07:25.606Z,6.87
2018-05-15T15:09:51.899Z,7.40
2018-05-15T15:12:18.159Z,8.20
2018-05-15T15:14:44.435Z,7.57
2018-05-15T15:17:11.469Z,7.07
2018-05-15T15:19:37.830Z,8.07
2018-05-15T15:22:04.978Z,7.13
2018-05-15T15:24:32.025Z,8.50
2018-05-15T15:26:59.072Z,8.13
2018-05-15T15:29:26.203Z,10.10
2018-05-15T15:32:05.970Z,9.03
2018-05-15T15:34:32.989Z,9.20
2018-05-15T15:36:59.428Z,8.97
2018-05-15T15:39:25.855Z,8.87
2018-05-15T15:41:52.182Z,8.20
2018-05-15T15:44:18.562Z,7.90
2018-05-15T15:46:45.004Z,9.63
2018-05-15T15:49:11.490Z,7.33
2018-05-15T15:51:37.821Z,8.03
2018-05-15T15:54:04.130Z,7.73
2018-05-15T15:56:30.525Z,9.43
2018-05-15T15:58:56.913Z,10.03
2018-05-15T16:01:23.245Z,9.13
2018-05-15T16:03:49.574Z,9.57
2018-05-15T16:06:15.939Z,9.57
2018-05-15T16:08:42.338Z,9.00
2018-05-15T16:11:08.687Z,9.50
2018-05-15T16:13:35.814Z,7.40
2018-05-15T16:16:02.227Z,7.90
2018-05-15T16:18:28.627Z,8.60
2018-05-15T16:20:54.987Z,8.00
2018-05-15T16:23:21.343Z,9.17
2018-05-15T16:25:47.704Z,8.80
2018-05-15T16:28:14.821Z,8.37
2018-05-15T16:30:41.164Z,7.60
2018-05-15T16:33:07.520Z,8.33
2018-05-15T16:35:34.592Z,7.17
2018-05-15T16:38:00.940Z,7.90
2018-05-15T16:40:27.295Z,8.27
2018-05-15T16:42:53.701Z,8.17
2018-05-15T16:45:20.063Z,7.50
2018-05-15T16:47:46.418Z,7.23
2018-05-15T16:50:12.761Z,6.93
2018-05-15T16:52:39.967Z,7.30
2018-05-15T16:55:07.045Z,7.07
2018-05-15T16:57:33.438Z,7.47
2018-05-15T16:59:59.823Z,7.40
2018-05-15T17:02:26.165Z,8.23
2018-05-15T17:04:53.246Z,7.80
2018-05-15T17:07:19.560Z,6.47
2018-05-15T17:09:45.889Z,7.70
2018-05-15T17:12:12.178Z,6.80
2018-05-15T17:14:38.543Z,7.20
2018-05-15T17:17:05.997Z,7.30
2018-05-15T17:19:32.371Z,7.70
2018-05-15T17:21:58.688Z,8.13
2018-05-15T17:24:25.098Z,8.83
2018-05-15T17:26:52.472Z,8.13
2018-05-15T17:29:18.830Z,8.70
2018-05-15T17:31:45.185Z,9.70
2018-05-15T17:34:11.589Z,9.53
2018-05-15T17:36:38.340Z,8.33
2018-05-15T17:39:05.480Z,8.33
2018-05-15T17:41:31.825Z,9.23
2018-05-15T17:43:58.106Z,8.53
2018-05-15T17:46:24.563Z,9.37
2018-05-15T17:48:50.909Z,8.50
2018-05-15T17:51:17.231Z,8.70
2018-05-15T17:53:43.600Z,8.33
2018-05-15T17:56:10.014Z,8.73
2018-05-15T17:58:36.345Z,8.47
2018-05-15T18:01:02.710Z,9.33
2018-05-15T18:03:29.802Z,10.10
2018-05-15T18:05:56.137Z,8.70
2018-05-15T18:08:22.490Z,8.73
2018-05-15T18:10:49.493Z,8.60
2018-05-15T18:13:15.831Z,7.33
2018-05-15T18:15:42.243Z,8.30
2018-05-15T18:18:09.276Z,8.20
2018-05-15T18:20:35.636Z,9.63
2018-05-15T18:23:01.970Z,12.30
2018-05-15T18:25:28.332Z,11.40
2018-05-15T18:27:54.763Z,10.93
2018-05-15T18:30:21.195Z,13.07
2018-05-15T18:32:47.523Z,12.80
2018-05-15T18:35:13.965Z,12.30
2018-05-15T18:37:41.245Z,9.27
2018-05-15T18:40:07.781Z,9.57
2018-05-15T18:42:34.329Z,9.27
2018-05-15T18:45:01.626Z,10.47
2018-05-15T18:47:28.052Z,11.07
2018-05-15T18:49:54.520Z,10.00
2018-05-15T18:52:20.893Z,9.60
2018-05-15T18:54:48.120Z,8.40
2018-05-15T18:57:14.575Z,9.17
2018-05-15T18:59:40.981Z,9.53
2018-05-15T19:02:07.382Z,10.07
2018-05-15T19:04:33.786Z,9.73
2018-05-15T19:07:00.974Z,12.80
2018-05-15T19:09:27.349Z,10.83
2018-05-15T19:11:54.462Z,9.70
2018-05-15T19:14:20.814Z,9.17
2018-05-15T19:16:47.194Z,10.10
2018-05-15T19:19:13.776Z,9.30
2018-05-15T19:21:40.233Z,10.50
2018-05-15T19:24:06.703Z,8.27
2018-05-15T19:26:33.130Z,9.70
2018-05-15T19:28:59.540Z,10.20
2018-05-15T19:31:32.136Z,9.50
2018-05-15T19:33:58.473Z,9.97
2018-05-15T19:36:30.201Z,8.87
2018-05-15T19:39:03.329Z,12.60
2018-05-15T19:41:29.670Z,9.00
2018-05-15T19:43:56.042Z,8.20
2018-05-15T19:46:22.448Z,6.73
2018-05-15T19:48:48.800Z,8.40
2018-05-15T19:51:15.206Z,8.40
2018-05-15T19:53:42.559Z,8.07
2018-05-15T19:56:08.900Z,8.27
2018-05-15T19:58:35.223Z,10.70
2018-05-15T20:01:01.536Z,9.83
2018-05-15T20:03:27.863Z,12.57
2018-05-15T20:05:54.283Z,9.70
2018-05-15T20:08:20.721Z,11.40
2018-05-15T20:10:47.819Z,9.37
2018-05-15T20:13:14.192Z,10.27
2018-05-15T20:15:41.347Z,10.53
2018-05-15T20:18:08.409Z,9.90
2018-05-15T20:20:34.854Z,9.33
2018-05-15T20:23:01.217Z,8.80
2018-05-15T20:25:27.533Z,10.17
2018-05-15T20:27:53.834Z,9.60
2018-05-15T20:30:20.253Z,9.60
2018-05-15T20:32:47.308Z,11.80
2018-05-15T20:35:13.646Z,10.07
2018-05-15T20:37:41.084Z,10.50
2018-05-15T20:40:07.486Z,8.60
2018-05-15T20:42:33.868Z,9.00
2018-05-15T20:45:00.999Z,8.53
2018-05-15T20:47:27.329Z,7.40
2018-05-15T20:49:53.688Z,14.33
2018-05-15T20:52:20.079Z,9.30
2018-05-15T20:54:46.463Z,8.37
2018-05-15T20:57:12.910Z,9.03
2018-05-15T20:59:39.216Z,7.97
2018-05-15T21:02:05.551Z,7.73
2018-05-15T21:04:31.901Z,7.83
2018-05-15T21:06:58.411Z,7.50
2018-05-15T21:09:25.161Z,7.60
2018-05-15T21:11:51.509Z,8.17
2018-05-15T21:14:17.858Z,8.07
2018-05-15T21:16:44.229Z,7.13
2018-05-15T21:19:11.661Z,7.53
2018-05-15T21:21:37.988Z,7.60
2018-05-15T21:24:04.687Z,7.40
2018-05-15T21:26:31.166Z,7.87
2018-05-15T21:28:57.496Z,7.47
2018-05-15T21:31:24.054Z,7.30
2018-05-15T21:33:50.414Z,6.67
2018-05-15T21:36:16.818Z,7.30
2018-05-15T21:38:43.180Z,8.00
2018-05-15T21:41:09.954Z,8.33
2018-05-15T21:43:36.478Z,6.93
2018-05-15T21:46:02.837Z,8.00
2018-05-15T21:48:30.068Z,8.37
2018-05-15T21:50:56.389Z,7.57
2018-05-15T21:53:22.884Z,7.30
2018-05-15T21:55:49.186Z,8.27
2018-05-15T21:58:15.594Z,8.30
2018-05-15T22:00:41.896Z,7.63
2018-05-15T22:03:08.965Z,7.43
2018-05-15T22:05:35.343Z,7.33
2018-05-15T22:08:01.889Z,7.37
2018-05-15T22:10:28.176Z,7.60
2018-05-15T22:13:13.319Z,6.40
2018-05-15T22:15:58.315Z,7.10
2018-05-15T22:18:43.194Z,7.83
2018-05-15T22:21:28.111Z,6.93
2018-05-15T22:23:55.017Z,7.23
2018-05-15T22:26:22.427Z,7.50
2018-05-15T22:28:48.930Z,7.73
2018-05-15T22:31:15.241Z,8.07
2018-05-15T22:33:41.952Z,7.83
2018-05-15T22:36:08.314Z,8.33
2018-05-15T22:38:34.691Z,7.53
2018-05-15T22:41:01.107Z,8.00
2018-05-15T22:43:28.330Z,8.07
2018-05-15T22:45:54.718Z,7.90
2018-05-15T22:48:21.206Z,9.00
2018-05-15T22:50:47.742Z,7.97
2018-05-15T22:53:14.044Z,7.40
2018-05-15T22:55:40.597Z,6.70
2018-05-15T22:58:06.899Z,8.30
2018-05-15T23:00:33.297Z,8.57
2018-05-15T23:03:00.357Z,8.50
2018-05-15T23:05:26.662Z,9.70
2018-05-15T23:07:52.978Z,9.37
2018-05-15T23:10:19.547Z,8.90
2018-05-15T23:12:46.052Z,9.53
2018-05-15T23:15:12.393Z,8.87
2018-05-15T23:17:38.719Z,8.73
2018-05-15T23:20:05.400Z,9.87
2018-05-15T23:22:41.943Z,10.10
2018-05-15T23:25:09.024Z,9.07
2018-05-15T23:27:35.332Z,9.47
2018-05-15T23:30:02.609Z,10.30
2018-05-15T23:32:28.961Z,10.77
2018-05-15T23:34:55.293Z,11.60
2018-05-15T23:37:21.694Z,11.40
2018-05-15T23:39:48.025Z,10.67
2018-05-15T23:42:14.395Z,11.57
2018-05-15T23:44:40.785Z,10.70
2018-05-15T23:47:07.161Z,11.23
2018-05-15T23:49:33.507Z,12.00
2018-05-15T23:51:59.971Z,10.73
2018-05-15T23:54:27.012Z,11.93
2018-05-15T23:56:53.519Z,12.70
2018-05-15T23:59:19.916Z,11.10
